sensor_id;sensor_type;location;lat;lon;timestamp;P1;durP1;ratioP1;P2;durP2;ratioP2
46637;SDS011;32365;46.938;7.390;2023-06-22T06:20:47;1.67;;;1.38;;
46637;SDS011;32365;46.938;7.390;2023-06-22T06:23:13;2.30;;;2.20;;
46637;SDS011;32365;46.938;7.390;2023-06-22T06:25:41;2.33;;;2.00;;
46637;SDS011;32365;46.938;7.390;2023-06-22T06:28:07;5.43;;;1.33;;
46637;SDS011;32365;46.938;7.390;2023-06-22T06:30:34;3.45;;;1.17;;
46637;SDS011;32365;46.938;7.390;2023-06-22T06:33:02;1.60;;;1.50;;
46637;SDS011;32365;46.938;7.390;2023-06-22T06:35:29;2.50;;;2.30;;
46637;SDS011;32365;46.938;7.390;2023-06-22T06:37:57;4.30;;;1.95;;
46637;SDS011;32365;46.938;7.390;2023-06-22T06:40:24;3.22;;;1.73;;
46637;SDS011;32365;46.938;7.390;2023-06-22T06:42:50;5.70;;;2.28;;
46637;SDS011;32365;46.938;7.390;2023-06-22T06:45:17;3.65;;;1.95;;
46637;SDS011;32365;46.938;7.390;2023-06-22T06:47:45;4.30;;;1.70;;
46637;SDS011;32365;46.938;7.390;2023-06-22T06:50:12;3.20;;;1.75;;
46637;SDS011;32365;46.938;7.390;2023-06-22T06:52:39;2.60;;;1.85;;
46637;SDS011;32365;46.938;7.390;2023-06-22T06:55:07;5.30;;;2.45;;
46637;SDS011;32365;46.938;7.390;2023-06-22T06:57:36;8.85;;;1.80;;
46637;SDS011;32365;46.938;7.390;2023-06-22T07:00:03;10.55;;;3.00;;
46637;SDS011;32365;46.938;7.390;2023-06-22T07:02:34;6.70;;;2.47;;
46637;SDS011;32365;46.938;7.390;2023-06-22T07:05:01;5.78;;;2.33;;
46637;SDS011;32365;46.938;7.390;2023-06-22T07:07:29;2.38;;;2.28;;
46637;SDS011;32365;46.938;7.390;2023-06-22T07:09:55;2.38;;;2.17;;
46637;SDS011;32365;46.938;7.390;2023-06-22T07:12:23;3.97;;;2.55;;
46637;SDS011;32365;46.938;7.390;2023-06-22T07:14:51;3.13;;;1.30;;
46637;SDS011;32365;46.938;7.390;2023-06-22T07:17:17;4.05;;;2.60;;
46637;SDS011;32365;46.938;7.390;2023-06-22T07:19:44;1.98;;;1.88;;
46637;SDS011;32365;46.938;7.390;2023-06-22T07:22:10;4.70;;;1.88;;
46637;SDS011;32365;46.938;7.390;2023-06-22T07:24:37;4.50;;;2.60;;
46637;SDS011;32365;46.938;7.390;2023-06-22T07:27:04;1.92;;;1.83;;
46637;SDS011;32365;46.938;7.390;2023-06-22T07:29:33;2.92;;;2.33;;
46637;SDS011;32365;46.938;7.390;2023-06-22T07:32:00;3.13;;;2.33;;
46637;SDS011;32365;46.938;7.390;2023-06-22T07:34:29;2.67;;;2.03;;
46637;SDS011;32365;46.938;7.390;2023-06-22T07:36:56;3.35;;;2.40;;
46637;SDS011;32365;46.938;7.390;2023-06-22T07:39:22;2.25;;;1.92;;
46637;SDS011;32365;46.938;7.390;2023-06-22T07:41:51;6.82;;;2.10;;
46637;SDS011;32365;46.938;7.390;2023-06-22T07:44:18;2.25;;;2.05;;
46637;SDS011;32365;46.938;7.390;2023-06-22T07:46:45;2.95;;;2.05;;
46637;SDS011;32365;46.938;7.390;2023-06-22T07:49:12;1.58;;;1.48;;
46637;SDS011;32365;46.938;7.390;2023-06-22T07:51:38;2.83;;;1.80;;
46637;SDS011;32365;46.938;7.390;2023-06-22T07:54:05;1.80;;;1.67;;
46637;SDS011;32365;46.938;7.390;2023-06-22T07:56:32;8.27;;;1.50;;
46637;SDS011;32365;46.938;7.390;2023-06-22T07:58:58;3.20;;;2.63;;
46637;SDS011;32365;46.938;7.390;2023-06-22T08:01:26;4.50;;;2.92;;
46637;SDS011;32365;46.938;7.390;2023-06-22T08:03:54;3.45;;;1.90;;
46637;SDS011;32365;46.938;7.390;2023-06-22T08:06:21;2.80;;;2.60;;
46637;SDS011;32365;46.938;7.390;2023-06-22T08:08:47;3.80;;;2.42;;
46637;SDS011;32365;46.938;7.390;2023-06-22T08:11:14;2.08;;;1.98;;
46637;SDS011;32365;46.938;7.390;2023-06-22T08:13:40;6.82;;;2.55;;
46637;SDS011;32365;46.938;7.390;2023-06-22T08:16:06;4.45;;;1.75;;
46637;SDS011;32365;46.938;7.390;2023-06-22T08:18:33;5.57;;;2.40;;
46637;SDS011;32365;46.938;7.390;2023-06-22T08:21:01;2.55;;;2.35;;
46637;SDS011;32365;46.938;7.390;2023-06-22T08:23:27;5.05;;;2.35;;
46637;SDS011;32365;46.938;7.390;2023-06-22T08:25:54;3.25;;;1.10;;
46637;SDS011;32365;46.938;7.390;2023-06-22T08:28:20;1.55;;;1.45;;
46637;SDS011;32365;46.938;7.390;2023-06-22T08:30:47;2.42;;;2.22;;
46637;SDS011;32365;46.938;7.390;2023-06-22T08:33:13;2.67;;;1.10;;
46637;SDS011;32365;46.938;7.390;2023-06-22T08:35:40;3.03;;;2.75;;
46637;SDS011;32365;46.938;7.390;2023-06-22T08:38:08;5.75;;;2.47;;
46637;SDS011;32365;46.938;7.390;2023-06-22T08:40:34;1.55;;;1.45;;
46637;SDS011;32365;46.938;7.390;2023-06-22T08:43:01;2.83;;;2.30;;
46637;SDS011;32365;46.938;7.390;2023-06-22T08:45:27;2.10;;;1.90;;
46637;SDS011;32365;46.938;7.390;2023-06-22T08:47:54;6.40;;;3.33;;
46637;SDS011;32365;46.938;7.390;2023-06-22T08:50:20;2.80;;;1.75;;
46637;SDS011;32365;46.938;7.390;2023-06-22T08:52:47;2.60;;;2.30;;
46637;SDS011;32365;46.938;7.390;2023-06-22T08:55:14;8.18;;;1.17;;
46637;SDS011;32365;46.938;7.390;2023-06-22T08:57:41;2.70;;;1.33;;
46637;SDS011;32365;46.938;7.390;2023-06-22T09:00:08;6.70;;;2.83;;
46637;SDS011;32365;46.938;7.390;2023-06-22T09:02:41;4.45;;;2.03;;
46637;SDS011;32365;46.938;7.390;2023-06-22T09:05:08;5.80;;;2.75;;
46637;SDS011;32365;46.938;7.390;2023-06-22T09:07:35;2.20;;;2.03;;
46637;SDS011;32365;46.938;7.390;2023-06-22T09:10:02;3.55;;;1.58;;
46637;SDS011;32365;46.938;7.390;2023-06-22T09:12:31;12.00;;;1.60;;
46637;SDS011;32365;46.938;7.390;2023-06-22T09:14:58;6.47;;;1.60;;
46637;SDS011;32365;46.938;7.390;2023-06-22T09:17:25;4.43;;;1.60;;
46637;SDS011;32365;46.938;7.390;2023-06-22T09:19:51;21.40;;;2.53;;
46637;SDS011;32365;46.938;7.390;2023-06-22T09:22:18;3.55;;;2.28;;
46637;SDS011;32365;46.938;7.390;2023-06-22T09:24:44;6.13;;;2.58;;
46637;SDS011;32365;46.938;7.390;2023-06-22T09:27:11;8.25;;;1.73;;
46637;SDS011;32365;46.938;7.390;2023-06-22T09:29:39;3.90;;;2.20;;
46637;SDS011;32365;46.938;7.390;2023-06-22T09:32:06;8.05;;;2.55;;
46637;SDS011;32365;46.938;7.390;2023-06-22T09:34:33;1.45;;;1.23;;
46637;SDS011;32365;46.938;7.390;2023-06-22T09:36:59;4.72;;;1.85;;
46637;SDS011;32365;46.938;7.390;2023-06-22T09:39:26;3.45;;;2.03;;
46637;SDS011;32365;46.938;7.390;2023-06-22T09:41:52;3.58;;;2.35;;
46637;SDS011;32365;46.938;7.390;2023-06-22T09:44:19;10.05;;;2.20;;
46637;SDS011;32365;46.938;7.390;2023-06-22T09:46:47;1.52;;;1.42;;
46637;SDS011;32365;46.938;7.390;2023-06-22T09:49:13;4.90;;;1.48;;
46637;SDS011;32365;46.938;7.390;2023-06-22T09:51:40;4.68;;;2.78;;
46637;SDS011;32365;46.938;7.390;2023-06-22T09:54:06;4.65;;;3.00;;
46637;SDS011;32365;46.938;7.390;2023-06-22T09:56:32;2.10;;;1.60;;
46637;SDS011;32365;46.938;7.390;2023-06-22T09:58:59;6.47;;;2.67;;
46637;SDS011;32365;46.938;7.390;2023-06-22T10:01:25;2.55;;;1.75;;
46637;SDS011;32365;46.938;7.390;2023-06-22T10:03:53;1.52;;;1.42;;
46637;SDS011;32365;46.938;7.390;2023-06-22T10:06:21;1.50;;;1.40;;
46637;SDS011;32365;46.938;7.390;2023-06-22T10:08:47;2.88;;;1.60;;
46637;SDS011;32365;46.938;7.390;2023-06-22T10:11:16;1.17;;;1.13;;
46637;SDS011;32365;46.938;7.390;2023-06-22T10:13:42;7.28;;;1.73;;
46637;SDS011;32365;46.938;7.390;2023-06-22T10:16:09;4.28;;;1.50;;
46637;SDS011;32365;46.938;7.390;2023-06-22T10:18:35;4.75;;;2.65;;
46637;SDS011;32365;46.938;7.390;2023-06-22T10:21:03;4.82;;;2.25;;
46637;SDS011;32365;46.938;7.390;2023-06-22T10:23:30;7.18;;;1.63;;
46637;SDS011;32365;46.938;7.390;2023-06-22T10:25:56;4.63;;;2.40;;
46637;SDS011;32365;46.938;7.390;2023-06-22T10:28:23;4.13;;;2.30;;
46637;SDS011;32365;46.938;7.390;2023-06-22T10:30:49;5.13;;;1.67;;
46637;SDS011;32365;46.938;7.390;2023-06-22T10:33:16;2.58;;;1.25;;
46637;SDS011;32365;46.938;7.390;2023-06-22T10:35:42;1.92;;;1.48;;
46637;SDS011;32365;46.938;7.390;2023-06-22T10:38:10;2.15;;;1.90;;
46637;SDS011;32365;46.938;7.390;2023-06-22T10:40:36;1.83;;;1.38;;
46637;SDS011;32365;46.938;7.390;2023-06-22T10:43:04;3.88;;;3.47;;
46637;SDS011;32365;46.938;7.390;2023-06-22T10:45:31;2.03;;;1.92;;
46637;SDS011;32365;46.938;7.390;2023-06-22T10:47:57;2.92;;;2.13;;
46637;SDS011;32365;46.938;7.390;2023-06-22T10:50:24;2.60;;;2.30;;
46637;SDS011;32365;46.938;7.390;2023-06-22T10:52:50;1.17;;;1.17;;
46637;SDS011;32365;46.938;7.390;2023-06-22T10:55:18;2.03;;;1.92;;
46637;SDS011;32365;46.938;7.390;2023-06-22T10:57:45;9.15;;;2.28;;
46637;SDS011;32365;46.938;7.390;2023-06-22T11:00:12;2.03;;;1.90;;
46637;SDS011;32365;46.938;7.390;2023-06-22T11:02:40;2.03;;;1.85;;
46637;SDS011;32365;46.938;7.390;2023-06-22T11:05:07;3.08;;;2.08;;
46637;SDS011;32365;46.938;7.390;2023-06-22T11:07:33;6.45;;;2.67;;
46637;SDS011;32365;46.938;7.390;2023-06-22T11:10:00;7.75;;;2.72;;
46637;SDS011;32365;46.938;7.390;2023-06-22T11:12:28;3.40;;;1.95;;
46637;SDS011;32365;46.938;7.390;2023-06-22T11:14:54;7.25;;;2.05;;
46637;SDS011;32365;46.938;7.390;2023-06-22T11:17:22;4.82;;;2.35;;
46637;SDS011;32365;46.938;7.390;2023-06-22T11:19:48;4.28;;;3.05;;
46637;SDS011;32365;46.938;7.390;2023-06-22T11:22:15;3.38;;;2.17;;
46637;SDS011;32365;46.938;7.390;2023-06-22T11:24:41;4.38;;;3.05;;
46637;SDS011;32365;46.938;7.390;2023-06-22T11:27:08;2.05;;;1.92;;
46637;SDS011;32365;46.938;7.390;2023-06-22T11:29:35;4.82;;;2.72;;
46637;SDS011;32365;46.938;7.390;2023-06-22T11:32:04;3.17;;;2.75;;
46637;SDS011;32365;46.938;7.390;2023-06-22T11:34:32;8.68;;;2.70;;
46637;SDS011;32365;46.938;7.390;2023-06-22T11:36:59;4.72;;;2.50;;
46637;SDS011;32365;46.938;7.390;2023-06-22T11:39:25;9.60;;;3.20;;
46637;SDS011;32365;46.938;7.390;2023-06-22T11:41:51;7.13;;;3.03;;
46637;SDS011;32365;46.938;7.390;2023-06-22T11:44:18;3.22;;;1.90;;
46637;SDS011;32365;46.938;7.390;2023-06-22T11:46:46;3.15;;;2.30;;
46637;SDS011;32365;46.938;7.390;2023-06-22T11:49:13;2.67;;;2.47;;
46637;SDS011;32365;46.938;7.390;2023-06-22T11:51:40;5.20;;;2.97;;
46637;SDS011;32365;46.938;7.390;2023-06-22T11:54:06;1.73;;;1.60;;
46637;SDS011;32365;46.938;7.390;2023-06-22T11:56:32;4.80;;;1.67;;
46637;SDS011;32365;46.938;7.390;2023-06-22T11:58:59;2.40;;;1.77;;
46637;SDS011;32365;46.938;7.390;2023-06-22T12:01:25;4.95;;;2.33;;
46637;SDS011;32365;46.938;7.390;2023-06-22T12:03:53;5.93;;;0.90;;
46637;SDS011;32365;46.938;7.390;2023-06-22T12:06:20;2.42;;;1.33;;
46637;SDS011;32365;46.938;7.390;2023-06-22T12:08:46;3.85;;;2.72;;
46637;SDS011;32365;46.938;7.390;2023-06-22T12:11:12;2.30;;;2.05;;
46637;SDS011;32365;46.938;7.390;2023-06-22T12:13:39;6.55;;;2.65;;
46637;SDS011;32365;46.938;7.390;2023-06-22T12:16:05;4.95;;;2.28;;
46637;SDS011;32365;46.938;7.390;2023-06-22T12:18:32;6.28;;;3.53;;
46637;SDS011;32365;46.938;7.390;2023-06-22T12:21:00;2.70;;;2.47;;
46637;SDS011;32365;46.938;7.390;2023-06-22T12:23:26;4.78;;;1.77;;
46637;SDS011;32365;46.938;7.390;2023-06-22T12:25:53;1.42;;;1.33;;
46637;SDS011;32365;46.938;7.390;2023-06-22T12:28:19;2.25;;;2.00;;
46637;SDS011;32365;46.938;7.390;2023-06-22T12:30:46;1.98;;;1.88;;
46637;SDS011;32365;46.938;7.390;2023-06-22T12:33:12;1.95;;;1.85;;
46637;SDS011;32365;46.938;7.390;2023-06-22T12:35:38;5.10;;;2.20;;
46637;SDS011;32365;46.938;7.390;2023-06-22T12:38:06;1.42;;;1.33;;
46637;SDS011;32365;46.938;7.390;2023-06-22T12:40:34;3.30;;;1.88;;
46637;SDS011;32365;46.938;7.390;2023-06-22T12:43:00;1.45;;;1.30;;
46637;SDS011;32365;46.938;7.390;2023-06-22T12:45:27;17.50;;;1.08;;
46637;SDS011;32365;46.938;7.390;2023-06-22T12:47:56;6.72;;;1.95;;
46637;SDS011;32365;46.938;7.390;2023-06-22T12:50:23;4.03;;;1.25;;
46637;SDS011;32365;46.938;7.390;2023-06-22T12:52:49;1.65;;;1.25;;
46637;SDS011;32365;46.938;7.390;2023-06-22T12:55:17;9.23;;;2.35;;
46637;SDS011;32365;46.938;7.390;2023-06-22T12:57:44;4.05;;;1.25;;
46637;SDS011;32365;46.938;7.390;2023-06-22T13:00:11;2.05;;;1.73;;
46637;SDS011;32365;46.938;7.390;2023-06-22T13:02:38;8.88;;;1.50;;
46637;SDS011;32365;46.938;7.390;2023-06-22T13:05:04;1.80;;;1.10;;
46637;SDS011;32365;46.938;7.390;2023-06-22T13:07:31;3.60;;;2.53;;
46637;SDS011;32365;46.938;7.390;2023-06-22T13:09:57;3.72;;;1.38;;
46637;SDS011;32365;46.938;7.390;2023-06-22T13:12:25;0.93;;;0.88;;
46637;SDS011;32365;46.938;7.390;2023-06-22T13:14:52;0.73;;;0.73;;
46637;SDS011;32365;46.938;7.390;2023-06-22T13:17:18;1.35;;;1.25;;
46637;SDS011;32365;46.938;7.390;2023-06-22T13:19:44;5.13;;;0.93;;
46637;SDS011;32365;46.938;7.390;2023-06-22T13:22:25;25.20;;;1.90;;
46637;SDS011;32365;46.938;7.390;2023-06-22T13:24:53;1.48;;;0.90;;
46637;SDS011;32365;46.938;7.390;2023-06-22T13:27:20;0.63;;;0.63;;
46637;SDS011;32365;46.938;7.390;2023-06-22T13:29:48;1.00;;;1.00;;
46637;SDS011;32365;46.938;7.390;2023-06-22T13:32:15;2.92;;;2.30;;
46637;SDS011;32365;46.938;7.390;2023-06-22T13:34:41;0.57;;;0.57;;
46637;SDS011;32365;46.938;7.390;2023-06-22T13:37:08;3.20;;;1.13;;
46637;SDS011;32365;46.938;7.390;2023-06-22T13:39:35;8.32;;;2.15;;
46637;SDS011;32365;46.938;7.390;2023-06-22T13:42:01;2.90;;;1.80;;
46637;SDS011;32365;46.938;7.390;2023-06-22T13:44:27;1.10;;;1.10;;
46637;SDS011;32365;46.938;7.390;2023-06-22T13:46:55;0.85;;;0.85;;
46637;SDS011;32365;46.938;7.390;2023-06-22T13:49:22;0.45;;;0.45;;
46637;SDS011;32365;46.938;7.390;2023-06-22T13:51:48;1.60;;;1.30;;
46637;SDS011;32365;46.938;7.390;2023-06-22T13:54:15;1.85;;;1.25;;
46637;SDS011;32365;46.938;7.390;2023-06-22T13:56:42;12.00;;;2.53;;
46637;SDS011;32365;46.938;7.390;2023-06-22T13:59:09;0.63;;;0.63;;
46637;SDS011;32365;46.938;7.390;2023-06-22T14:01:35;5.40;;;1.05;;
46637;SDS011;32365;46.938;7.390;2023-06-22T14:04:05;2.22;;;2.13;;
46637;SDS011;32365;46.938;7.390;2023-06-22T14:06:31;1.65;;;1.08;;
46637;SDS011;32365;46.938;7.390;2023-06-22T14:08:58;2.20;;;1.33;;
46637;SDS011;32365;46.938;7.390;2023-06-22T14:11:24;1.40;;;1.08;;
46637;SDS011;32365;46.938;7.390;2023-06-22T14:13:51;1.70;;;1.60;;
46637;SDS011;32365;46.938;7.390;2023-06-22T14:16:17;4.90;;;1.98;;
46637;SDS011;32365;46.938;7.390;2023-06-22T14:18:44;0.82;;;0.82;;
46637;SDS011;32365;46.938;7.390;2023-06-22T14:21:12;0.88;;;0.88;;
46637;SDS011;32365;46.938;7.390;2023-06-22T14:23:38;3.08;;;1.70;;
46637;SDS011;32365;46.938;7.390;2023-06-22T14:26:05;1.52;;;1.42;;
46637;SDS011;32365;46.938;7.390;2023-06-22T14:28:31;0.73;;;0.73;;
46637;SDS011;32365;46.938;7.390;2023-06-22T14:30:58;0.60;;;0.60;;
46637;SDS011;32365;46.938;7.390;2023-06-22T14:33:24;1.70;;;1.10;;
46637;SDS011;32365;46.938;7.390;2023-06-22T14:35:51;1.80;;;1.60;;
46637;SDS011;32365;46.938;7.390;2023-06-22T14:38:18;0.65;;;0.65;;
46637;SDS011;32365;46.938;7.390;2023-06-22T14:40:46;17.67;;;1.70;;
46637;SDS011;32365;46.938;7.390;2023-06-22T14:43:12;1.10;;;0.85;;
46637;SDS011;32365;46.938;7.390;2023-06-22T14:45:39;3.35;;;1.67;;
46637;SDS011;32365;46.938;7.390;2023-06-22T14:48:06;6.95;;;2.72;;
46637;SDS011;32365;46.938;7.390;2023-06-22T14:50:33;0.73;;;0.73;;
46637;SDS011;32365;46.938;7.390;2023-06-22T14:52:59;2.63;;;2.08;;
46637;SDS011;32365;46.938;7.390;2023-06-22T14:55:27;1.67;;;0.68;;
46637;SDS011;32365;46.938;7.390;2023-06-22T14:57:53;0.60;;;0.60;;
46637;SDS011;32365;46.938;7.390;2023-06-22T15:00:20;1.17;;;1.05;;
46637;SDS011;32365;46.938;7.390;2023-06-22T15:02:47;4.20;;;1.55;;
46637;SDS011;32365;46.938;7.390;2023-06-22T15:05:13;3.22;;;2.13;;
46637;SDS011;32365;46.938;7.390;2023-06-22T15:07:40;1.13;;;1.02;;
46637;SDS011;32365;46.938;7.390;2023-06-22T15:10:07;1.38;;;1.17;;
46637;SDS011;32365;46.938;7.390;2023-06-22T15:12:36;1.00;;;0.95;;
46637;SDS011;32365;46.938;7.390;2023-06-22T15:15:02;3.20;;;0.70;;
46637;SDS011;32365;46.938;7.390;2023-06-22T15:17:29;3.60;;;1.17;;
46637;SDS011;32365;46.938;7.390;2023-06-22T15:19:57;4.00;;;1.77;;
46637;SDS011;32365;46.938;7.390;2023-06-22T15:22:24;12.45;;;0.65;;
46637;SDS011;32365;46.938;7.390;2023-06-22T15:24:50;13.02;;;1.45;;
46637;SDS011;32365;46.938;7.390;2023-06-22T15:27:18;5.82;;;1.05;;
46637;SDS011;32365;46.938;7.390;2023-06-22T15:29:46;4.68;;;1.63;;
46637;SDS011;32365;46.938;7.390;2023-06-22T15:32:12;5.22;;;1.42;;
46637;SDS011;32365;46.938;7.390;2023-06-22T15:34:39;1.13;;;1.02;;
46637;SDS011;32365;46.938;7.390;2023-06-22T15:37:05;4.43;;;0.82;;
46637;SDS011;32365;46.938;7.390;2023-06-22T15:39:32;3.33;;;1.75;;
46637;SDS011;32365;46.938;7.390;2023-06-22T15:41:58;0.70;;;0.70;;
46637;SDS011;32365;46.938;7.390;2023-06-22T15:44:25;1.30;;;0.73;;
46637;SDS011;32365;46.938;7.390;2023-06-22T15:46:52;2.50;;;1.60;;
46637;SDS011;32365;46.938;7.390;2023-06-22T15:49:19;1.52;;;1.05;;
46637;SDS011;32365;46.938;7.390;2023-06-22T15:51:45;0.98;;;0.77;;
46637;SDS011;32365;46.938;7.390;2023-06-22T15:54:12;6.65;;;1.75;;
46637;SDS011;32365;46.938;7.390;2023-06-22T15:56:38;0.63;;;0.63;;
46637;SDS011;32365;46.938;7.390;2023-06-22T15:59:05;1.98;;;1.00;;
46637;SDS011;32365;46.938;7.390;2023-06-22T16:01:31;0.88;;;0.82;;
46637;SDS011;32365;46.938;7.390;2023-06-22T16:03:59;13.27;;;1.08;;
46637;SDS011;32365;46.938;7.390;2023-06-22T16:06:27;2.40;;;2.20;;
46637;SDS011;32365;46.938;7.390;2023-06-22T16:08:53;1.23;;;0.82;;
46637;SDS011;32365;46.938;7.390;2023-06-22T16:11:20;1.35;;;1.25;;
46637;SDS011;32365;46.938;7.390;2023-06-22T16:13:46;2.92;;;1.52;;
46637;SDS011;32365;46.938;7.390;2023-06-22T16:16:13;1.17;;;0.50;;
46637;SDS011;32365;46.938;7.390;2023-06-22T16:18:41;0.77;;;0.77;;
46637;SDS011;32365;46.938;7.390;2023-06-22T16:21:09;4.78;;;2.15;;
46637;SDS011;32365;46.938;7.390;2023-06-22T16:23:35;7.05;;;1.15;;
46637;SDS011;32365;46.938;7.390;2023-06-22T16:26:02;0.85;;;0.85;;
46637;SDS011;32365;46.938;7.390;2023-06-22T16:28:28;1.70;;;1.35;;
46637;SDS011;32365;46.938;7.390;2023-06-22T16:30:54;0.20;;;0.20;;
46637;SDS011;32365;46.938;7.390;2023-06-22T16:33:21;0.20;;;0.20;;
46637;SDS011;32365;46.938;7.390;2023-06-22T16:35:47;1.48;;;0.32;;
46637;SDS011;32365;46.938;7.390;2023-06-22T16:38:15;8.95;;;1.33;;
46637;SDS011;32365;46.938;7.390;2023-06-22T16:40:42;0.30;;;0.30;;
46637;SDS011;32365;46.938;7.390;2023-06-22T16:43:08;0.50;;;0.50;;
46637;SDS011;32365;46.938;7.390;2023-06-22T16:45:35;0.32;;;0.30;;
46637;SDS011;32365;46.938;7.390;2023-06-22T16:48:01;7.57;;;0.75;;
46637;SDS011;32365;46.938;7.390;2023-06-22T16:50:28;0.50;;;0.50;;
46637;SDS011;32365;46.938;7.390;2023-06-22T16:52:54;0.85;;;0.65;;
46637;SDS011;32365;46.938;7.390;2023-06-22T16:55:23;0.68;;;0.68;;
46637;SDS011;32365;46.938;7.390;2023-06-22T16:57:50;0.88;;;0.80;;
46637;SDS011;32365;46.938;7.390;2023-06-22T17:00:17;0.20;;;0.20;;
46637;SDS011;32365;46.938;7.390;2023-06-22T17:02:46;0.95;;;0.95;;
46637;SDS011;32365;46.938;7.390;2023-06-22T17:05:14;0.20;;;0.20;;
46637;SDS011;32365;46.938;7.390;2023-06-22T17:07:43;0.60;;;0.60;;
46637;SDS011;32365;46.938;7.390;2023-06-22T17:10:14;2.15;;;0.52;;
46637;SDS011;32365;46.938;7.390;2023-06-22T17:12:42;4.18;;;0.88;;
46637;SDS011;32365;46.938;7.390;2023-06-22T17:15:09;0.20;;;0.20;;
46637;SDS011;32365;46.938;7.390;2023-06-22T17:17:38;0.30;;;0.30;;
46637;SDS011;32365;46.938;7.390;2023-06-22T17:20:05;0.20;;;0.20;;
46637;SDS011;32365;46.938;7.390;2023-06-22T17:22:32;0.30;;;0.30;;
46637;SDS011;32365;46.938;7.390;2023-06-22T17:25:01;0.45;;;0.45;;
46637;SDS011;32365;46.938;7.390;2023-06-22T17:27:28;0.55;;;0.55;;
46637;SDS011;32365;46.938;7.390;2023-06-22T17:30:04;2.05;;;0.70;;
46637;SDS011;32365;46.938;7.390;2023-06-22T17:32:33;0.63;;;0.63;;
46637;SDS011;32365;46.938;7.390;2023-06-22T17:34:59;0.30;;;0.30;;
46637;SDS011;32365;46.938;7.390;2023-06-22T17:37:26;0.30;;;0.30;;
46637;SDS011;32365;46.938;7.390;2023-06-22T17:39:53;0.35;;;0.35;;
46637;SDS011;32365;46.938;7.390;2023-06-22T17:42:21;0.35;;;0.35;;
46637;SDS011;32365;46.938;7.390;2023-06-22T17:44:48;3.35;;;0.45;;
46637;SDS011;32365;46.938;7.390;2023-06-22T17:47:16;0.32;;;0.30;;
46637;SDS011;32365;46.938;7.390;2023-06-22T17:49:48;0.73;;;0.30;;
46637;SDS011;32365;46.938;7.390;2023-06-22T17:52:16;0.35;;;0.35;;
46637;SDS011;32365;46.938;7.390;2023-06-22T17:54:43;0.50;;;0.50;;
46637;SDS011;32365;46.938;7.390;2023-06-22T17:57:15;4.25;;;1.70;;
46637;SDS011;32365;46.938;7.390;2023-06-22T17:59:46;0.47;;;0.47;;
46637;SDS011;32365;46.938;7.390;2023-06-22T18:02:13;3.40;;;0.77;;
46637;SDS011;32365;46.938;7.390;2023-06-22T18:04:44;0.20;;;0.20;;
46637;SDS011;32365;46.938;7.390;2023-06-22T18:07:11;1.58;;;1.48;;
46637;SDS011;32365;46.938;7.390;2023-06-22T18:09:38;0.20;;;0.20;;
46637;SDS011;32365;46.938;7.390;2023-06-22T18:12:06;0.32;;;0.32;;
46637;SDS011;32365;46.938;7.390;2023-06-22T18:14:35;0.50;;;0.50;;
46637;SDS011;32365;46.938;7.390;2023-06-22T18:17:03;0.40;;;0.40;;
46637;SDS011;32365;46.938;7.390;2023-06-22T18:19:32;0.32;;;0.32;;
46637;SDS011;32365;46.938;7.390;2023-06-22T18:21:59;0.28;;;0.28;;
46637;SDS011;32365;46.938;7.390;2023-06-22T18:24:26;0.60;;;0.60;;
46637;SDS011;32365;46.938;7.390;2023-06-22T18:26:54;0.77;;;0.77;;
46637;SDS011;32365;46.938;7.390;2023-06-22T18:29:22;0.95;;;0.60;;
46637;SDS011;32365;46.938;7.390;2023-06-22T18:31:50;0.40;;;0.40;;
46637;SDS011;32365;46.938;7.390;2023-06-22T18:34:16;1.55;;;1.00;;
46637;SDS011;32365;46.938;7.390;2023-06-22T18:36:45;0.38;;;0.38;;
46637;SDS011;32365;46.938;7.390;2023-06-22T18:39:15;0.77;;;0.77;;
46637;SDS011;32365;46.938;7.390;2023-06-22T18:41:48;2.25;;;1.10;;
46637;SDS011;32365;46.938;7.390;2023-06-22T18:44:17;0.20;;;0.20;;
46637;SDS011;32365;46.938;7.390;2023-06-22T18:46:48;1.08;;;0.85;;
46637;SDS011;32365;46.938;7.390;2023-06-22T18:49:17;0.60;;;0.60;;
46637;SDS011;32365;46.938;7.390;2023-06-22T18:51:53;0.20;;;0.20;;
46637;SDS011;32365;46.938;7.390;2023-06-22T18:54:22;0.30;;;0.30;;
46637;SDS011;32365;46.938;7.390;2023-06-22T18:56:53;0.50;;;0.50;;
46637;SDS011;32365;46.938;7.390;2023-06-22T18:59:39;1.05;;;0.93;;
46637;SDS011;32365;46.938;7.390;2023-06-22T19:02:08;4.18;;;0.73;;
46637;SDS011;32365;46.938;7.390;2023-06-22T19:04:35;0.30;;;0.30;;
46637;SDS011;32365;46.938;7.390;2023-06-22T19:07:05;0.45;;;0.45;;
46637;SDS011;32365;46.938;7.390;2023-06-22T19:09:32;0.30;;;0.30;;
46637;SDS011;32365;46.938;7.390;2023-06-22T19:14:58;0.25;;;0.25;;
46637;SDS011;32365;46.938;7.390;2023-06-22T19:19:52;1.10;;;1.02;;
46637;SDS011;32365;46.938;7.390;2023-06-22T19:22:20;0.40;;;0.40;;
46637;SDS011;32365;46.938;7.390;2023-06-22T19:24:50;0.73;;;0.73;;
46637;SDS011;32365;46.938;7.390;2023-06-22T19:27:17;0.20;;;0.20;;
46637;SDS011;32365;46.938;7.390;2023-06-22T19:29:43;0.60;;;0.57;;
46637;SDS011;32365;46.938;7.390;2023-06-22T19:32:10;0.43;;;0.43;;
46637;SDS011;32365;46.938;7.390;2023-06-22T19:34:39;1.15;;;1.15;;
46637;SDS011;32365;46.938;7.390;2023-06-22T19:37:12;0.95;;;0.85;;
46637;SDS011;32365;46.938;7.390;2023-06-22T19:39:41;1.50;;;1.40;;
46637;SDS011;32365;46.938;7.390;2023-06-22T19:42:08;0.47;;;0.47;;
46637;SDS011;32365;46.938;7.390;2023-06-22T19:44:34;1.17;;;1.00;;
46637;SDS011;32365;46.938;7.390;2023-06-22T19:47:01;5.07;;;1.42;;
46637;SDS011;32365;46.938;7.390;2023-06-22T19:49:27;0.52;;;0.52;;
46637;SDS011;32365;46.938;7.390;2023-06-22T19:51:54;0.93;;;0.93;;
46637;SDS011;32365;46.938;7.390;2023-06-22T19:54:20;0.55;;;0.55;;
46637;SDS011;32365;46.938;7.390;2023-06-22T19:56:49;0.82;;;0.82;;
46637;SDS011;32365;46.938;7.390;2023-06-22T19:59:16;0.70;;;0.70;;
46637;SDS011;32365;46.938;7.390;2023-06-22T20:01:49;0.60;;;0.52;;
46637;SDS011;32365;46.938;7.390;2023-06-22T20:04:15;1.30;;;1.20;;
46637;SDS011;32365;46.938;7.390;2023-06-22T20:09:26;0.50;;;0.50;;
46637;SDS011;32365;46.938;7.390;2023-06-22T20:11:56;0.93;;;0.47;;
46637;SDS011;32365;46.938;7.390;2023-06-22T20:14:23;2.75;;;0.88;;
46637;SDS011;32365;46.938;7.390;2023-06-22T20:16:55;1.15;;;1.15;;
46637;SDS011;32365;46.938;7.390;2023-06-22T20:19:33;0.50;;;0.50;;
46637;SDS011;32365;46.938;7.390;2023-06-22T20:22:03;0.57;;;0.57;;
46637;SDS011;32365;46.938;7.390;2023-06-22T20:24:30;0.90;;;0.68;;
46637;SDS011;32365;46.938;7.390;2023-06-22T20:26:58;0.63;;;0.63;;
46637;SDS011;32365;46.938;7.390;2023-06-22T20:29:25;4.63;;;0.93;;
46637;SDS011;32365;46.938;7.390;2023-06-22T20:32:04;1.20;;;1.00;;
46637;SDS011;32365;46.938;7.390;2023-06-22T20:34:37;2.38;;;1.77;;
46637;SDS011;32365;46.938;7.390;2023-06-22T20:37:06;2.25;;;1.25;;
46637;SDS011;32365;46.938;7.390;2023-06-22T20:39:33;0.93;;;0.93;;
46637;SDS011;32365;46.938;7.390;2023-06-22T20:42:01;0.90;;;0.90;;
46637;SDS011;32365;46.938;7.390;2023-06-22T20:44:29;0.73;;;0.73;;
46637;SDS011;32365;46.938;7.390;2023-06-22T20:46:56;0.65;;;0.65;;
46637;SDS011;32365;46.938;7.390;2023-06-22T20:49:22;0.57;;;0.57;;
46637;SDS011;32365;46.938;7.390;2023-06-22T20:51:51;0.70;;;0.70;;
46637;SDS011;32365;46.938;7.390;2023-06-22T20:54:18;0.70;;;0.70;;
46637;SDS011;32365;46.938;7.390;2023-06-22T20:56:45;0.98;;;0.98;;
46637;SDS011;32365;46.938;7.390;2023-06-22T20:59:13;0.45;;;0.45;;
46637;SDS011;32365;46.938;7.390;2023-06-22T21:01:39;0.57;;;0.57;;
46637;SDS011;32365;46.938;7.390;2023-06-22T21:06:37;0.85;;;0.85;;
46637;SDS011;32365;46.938;7.390;2023-06-22T21:09:03;0.35;;;0.35;;
46637;SDS011;32365;46.938;7.390;2023-06-22T21:11:30;0.70;;;0.65;;
46637;SDS011;32365;46.938;7.390;2023-06-22T21:13:56;5.78;;;0.93;;
46637;SDS011;32365;46.938;7.390;2023-06-22T21:16:24;0.93;;;0.93;;
46637;SDS011;32365;46.938;7.390;2023-06-22T21:18:51;6.65;;;1.13;;